Terminal Aerodrome Forecast
Issued by NWS Tallahassee, FL

Home | Current Version | Previous Version | Text Only | Print | Product List | Glossary On
Versions: 1 2 3 4 5 6 7 8 9 10 11 12 13 14
000
FTUS42 KTAE 261120
TAFTLH
TAF
KTLH 261120Z 2612/2712 10007KT P6SM FEW020 SCT250
     FM261400 15007KT P6SM SCT025 BKN050
      TEMPO 2619/2623 VRB15G25KT 3SM TSRA OVC025CB
     FM262300 VRB03KT P6SM FEW050 SCT100 BKN200
     FM271000 10004KT P6SM BKN015=

USA.gov is the U.S. government's official web portal to all federal, state and local government web resources and services.